createdAt,value
2022-12-18T00:00:59.247Z,20
2022-12-18T00:03:25.660Z,20
2022-12-18T00:05:51.941Z,21
2022-12-18T00:08:18.178Z,20
2022-12-18T00:10:44.422Z,20
2022-12-18T00:13:10.647Z,20
2022-12-18T00:15:36.856Z,20
2022-12-18T00:18:03.140Z,19
2022-12-18T00:20:29.407Z,20
2022-12-18T00:22:55.662Z,19
2022-12-18T00:25:21.917Z,20
2022-12-18T00:27:48.183Z,19
2022-12-18T00:30:14.377Z,19
2022-12-18T00:32:40.649Z,20
2022-12-18T00:35:06.892Z,19
2022-12-18T00:37:33.188Z,18
2022-12-18T00:39:59.413Z,19
2022-12-18T00:42:25.670Z,19
2022-12-18T00:44:51.972Z,19
2022-12-18T00:47:18.195Z,19
2022-12-18T00:49:44.406Z,19
2022-12-18T00:52:10.649Z,20
2022-12-18T00:54:36.980Z,18
2022-12-18T00:57:03.183Z,19
2022-12-18T00:59:29.449Z,18
2022-12-18T01:01:55.788Z,17
2022-12-18T01:04:22.034Z,18
2022-12-18T01:06:48.238Z,18
2022-12-18T01:09:14.524Z,18
2022-12-18T01:11:40.801Z,18
2022-12-18T01:14:07.026Z,18
2022-12-18T01:16:33.325Z,17
2022-12-18T01:18:59.555Z,18
2022-12-18T01:21:25.764Z,17
2022-12-18T01:23:52.102Z,17
2022-12-18T01:26:18.354Z,16
2022-12-18T01:28:44.613Z,17
2022-12-18T01:31:10.804Z,17
2022-12-18T01:33:37.343Z,17
2022-12-18T01:36:03.323Z,17
2022-12-18T01:38:29.543Z,17
2022-12-18T01:40:55.836Z,17
2022-12-18T01:43:22.099Z,17
2022-12-18T01:45:48.402Z,17
2022-12-18T01:48:14.585Z,16
2022-12-18T01:50:40.823Z,15
2022-12-18T01:53:07.057Z,16
2022-12-18T01:55:33.311Z,16
2022-12-18T01:57:59.525Z,16
2022-12-18T02:00:25.810Z,16
2022-12-18T02:02:52.295Z,15
2022-12-18T02:05:18.428Z,14
2022-12-18T02:07:44.688Z,15
2022-12-18T02:10:10.890Z,15
2022-12-18T02:12:37.165Z,15
2022-12-18T02:15:03.408Z,15
2022-12-18T02:17:29.625Z,14
2022-12-18T02:19:55.836Z,14
2022-12-18T02:22:22.197Z,13
2022-12-18T02:24:48.441Z,14
2022-12-18T02:27:14.671Z,13
2022-12-18T02:29:40.877Z,14
2022-12-18T02:32:07.159Z,13
2022-12-18T02:34:33.363Z,14
2022-12-18T02:36:59.591Z,13
2022-12-18T02:39:25.829Z,14
2022-12-18T02:41:52.058Z,14
2022-12-18T02:44:18.315Z,13
2022-12-18T02:46:44.546Z,13
2022-12-18T02:49:10.791Z,13
2022-12-18T02:51:37.055Z,13
2022-12-18T02:54:03.302Z,12
2022-12-18T02:56:29.603Z,13
2022-12-18T02:58:56.073Z,12
2022-12-18T03:01:22.463Z,13
2022-12-18T03:03:48.618Z,12
2022-12-18T03:06:14.917Z,12
2022-12-18T03:08:41.161Z,13
2022-12-18T03:11:07.386Z,12
2022-12-18T03:13:33.636Z,12
2022-12-18T03:15:59.908Z,12
2022-12-18T03:18:26.142Z,12
2022-12-18T03:20:52.375Z,12
2022-12-18T03:23:18.630Z,13
2022-12-18T03:25:44.906Z,12
2022-12-18T03:28:11.152Z,12
2022-12-18T03:30:37.445Z,12
2022-12-18T03:33:03.644Z,12
2022-12-18T03:35:29.933Z,11
2022-12-18T03:37:56.138Z,11
2022-12-18T03:40:22.398Z,12
2022-12-18T03:42:48.635Z,11
2022-12-18T03:45:14.920Z,12
2022-12-18T03:47:41.149Z,12
2022-12-18T03:50:12.467Z,12
2022-12-18T03:52:33.633Z,12
2022-12-18T03:54:59.901Z,12
2022-12-18T03:57:26.144Z,12
2022-12-18T03:59:52.371Z,12
2022-12-18T04:02:18.638Z,12
2022-12-18T04:04:44.860Z,12
2022-12-18T04:07:11.130Z,12
2022-12-18T04:09:37.357Z,11
2022-12-18T04:12:03.567Z,11
2022-12-18T04:14:29.827Z,11
2022-12-18T04:16:56.083Z,11
2022-12-18T04:19:22.303Z,12
2022-12-18T04:21:48.555Z,11
2022-12-18T04:24:14.782Z,12
2022-12-18T04:26:40.978Z,11
2022-12-18T04:29:07.216Z,11
2022-12-18T04:31:33.526Z,11
2022-12-18T04:33:59.708Z,11
2022-12-18T04:36:25.946Z,11
2022-12-18T04:38:52.213Z,11
2022-12-18T04:41:18.449Z,11
2022-12-18T04:43:44.661Z,11
2022-12-18T04:46:10.900Z,11
2022-12-18T04:48:37.161Z,11
2022-12-18T04:51:03.346Z,11
2022-12-18T04:53:29.570Z,10
2022-12-18T04:55:55.795Z,11
2022-12-18T04:58:22.052Z,11
2022-12-18T05:00:48.252Z,10
2022-12-18T05:03:14.582Z,10
2022-12-18T05:05:40.803Z,11
2022-12-18T05:08:07.024Z,10
2022-12-18T05:10:38.103Z,10
2022-12-18T05:13:01.189Z,10
2022-12-18T05:15:25.718Z,10
2022-12-18T05:17:51.954Z,11
2022-12-18T05:20:18.203Z,11
2022-12-18T05:22:44.490Z,10
2022-12-18T05:25:10.681Z,10
2022-12-18T05:27:36.966Z,10
2022-12-18T05:30:03.210Z,10
2022-12-18T05:32:29.428Z,10
2022-12-18T05:34:55.656Z,10
2022-12-18T05:37:21.890Z,10
2022-12-18T05:39:48.140Z,10
2022-12-18T05:42:14.374Z,10
2022-12-18T05:44:40.579Z,10
2022-12-18T05:47:06.845Z,10
2022-12-18T05:49:33.112Z,10
2022-12-18T05:51:59.327Z,10
2022-12-18T05:54:25.515Z,10
2022-12-18T05:56:51.778Z,10
2022-12-18T05:59:17.974Z,10
2022-12-18T06:01:44.373Z,9
2022-12-18T06:04:10.529Z,10
2022-12-18T06:06:36.772Z,10
2022-12-18T06:09:03.005Z,10
2022-12-18T06:11:29.217Z,10
2022-12-18T06:13:58.560Z,10
2022-12-18T06:16:21.752Z,10
2022-12-18T06:18:47.967Z,9
2022-12-18T06:21:14.194Z,10
2022-12-18T06:23:40.930Z,10
2022-12-18T06:26:06.669Z,10
2022-12-18T06:28:32.927Z,10
2022-12-18T06:30:59.152Z,10
2022-12-18T06:33:25.394Z,10
2022-12-18T06:35:54.312Z,10
2022-12-18T06:38:17.899Z,9
2022-12-18T06:40:44.183Z,10
2022-12-18T06:43:10.404Z,11
2022-12-18T06:45:36.678Z,10
2022-12-18T06:48:02.913Z,10
2022-12-18T06:50:29.111Z,10
2022-12-18T06:52:55.372Z,11
2022-12-18T06:55:21.620Z,11
2022-12-18T06:57:47.890Z,10
2022-12-18T07:00:14.114Z,11
2022-12-18T07:02:40.484Z,10
2022-12-18T07:05:10.760Z,10
2022-12-18T07:07:32.825Z,10
2022-12-18T07:09:59.073Z,10
2022-12-18T07:12:25.335Z,11
2022-12-18T07:14:51.650Z,12
2022-12-18T07:17:17.870Z,11
2022-12-18T07:19:44.090Z,12
2022-12-18T07:22:10.378Z,11
2022-12-18T07:24:36.632Z,12
2022-12-18T07:27:02.816Z,12
2022-12-18T07:29:29.132Z,11
2022-12-18T07:31:55.435Z,11
2022-12-18T07:34:21.679Z,11
2022-12-18T07:36:47.928Z,12
2022-12-18T07:39:14.202Z,12
2022-12-18T07:41:46.440Z,12
2022-12-18T07:44:06.792Z,11
2022-12-18T07:46:33.069Z,11
2022-12-18T07:48:59.242Z,12
2022-12-18T07:51:25.505Z,12
2022-12-18T07:53:52.399Z,12
2022-12-18T07:56:27.210Z,11
2022-12-18T07:58:44.341Z,11
2022-12-18T08:01:10.604Z,11
2022-12-18T08:03:37.154Z,11
2022-12-18T08:06:03.063Z,11
2022-12-18T08:08:29.241Z,11
2022-12-18T08:10:55.461Z,12
2022-12-18T08:13:21.779Z,11
2022-12-18T08:15:48.032Z,10
2022-12-18T08:18:14.668Z,11
2022-12-18T08:20:40.687Z,11
2022-12-18T08:23:06.950Z,11
2022-12-18T08:25:33.187Z,11
2022-12-18T08:27:59.435Z,11
2022-12-18T08:30:25.694Z,11
2022-12-18T08:32:51.955Z,11
2022-12-18T08:35:18.884Z,11
2022-12-18T08:37:45.667Z,12
2022-12-18T08:40:10.788Z,12
2022-12-18T08:42:37.212Z,12
2022-12-18T08:45:03.416Z,12
2022-12-18T08:47:29.680Z,12
2022-12-18T08:49:55.978Z,12
2022-12-18T08:52:22.248Z,13
2022-12-18T08:54:48.465Z,13
2022-12-18T08:57:14.751Z,14
2022-12-18T08:59:40.922Z,15
2022-12-18T09:02:07.296Z,14
2022-12-18T09:04:33.623Z,14
2022-12-18T09:06:59.938Z,14
2022-12-18T09:09:26.204Z,14
2022-12-18T09:11:52.718Z,14
2022-12-18T09:14:19.130Z,14
2022-12-18T09:16:45.467Z,14
2022-12-18T09:19:11.665Z,14
2022-12-18T09:21:37.932Z,14
2022-12-18T09:24:04.243Z,14
2022-12-18T09:26:30.473Z,13
2022-12-18T09:28:56.700Z,14
2022-12-18T09:31:23.028Z,14
2022-12-18T09:33:49.237Z,13
2022-12-18T09:36:15.485Z,13
2022-12-18T09:38:42.200Z,14
2022-12-18T09:41:08.128Z,17
2022-12-18T09:43:34.395Z,17
2022-12-18T09:46:00.726Z,18
2022-12-18T09:48:26.915Z,18
2022-12-18T09:50:53.140Z,21
2022-12-18T09:53:19.436Z,19
2022-12-18T09:55:45.921Z,20
2022-12-18T09:58:12.202Z,19
2022-12-18T10:00:38.399Z,21
2022-12-18T10:03:04.876Z,19
2022-12-18T10:05:31.028Z,19
2022-12-18T10:07:57.305Z,19
2022-12-18T10:10:23.615Z,20
2022-12-18T10:12:49.815Z,19
2022-12-18T10:15:16.206Z,19
